Wheeler Army Airfield Wahiawa US
ICAO: PHHI
IATA:
Category: Medium
Scheduled Services:

Elevation: 837 ft
TransAlt. 0 ft.

Airport Communications:
VFR ADVSY SVC:118.3
HONOLULU APP:118.3
ATIS:119.675
CTAF:126.3
DEP:118.3
GND:41.5
LIGHTNING RDO:139.2
PINEAPPLE:125.1
PMSV METRO:125.1
HONOLULU RDO:122.2
TWR:126.3

PHHI Zoom In..

If you have problems with the map follow the link
https://www.worldairports.se/pages/airport.php?
ICAO=PHHI

Runways:

(A) RW 06 length 5607 ft width 294 ft
---- / hdg 58

(B) RW 24 length 5607 ft width 294 ft
---- / hdg 238

Location; PHHI
Day. 19 / Time. 16.56 Zulu
* Altimeter: 30.10
* Temperature: 19° c. 66.2°f.
* Wind from: 320° Speed 05 kn.
Dewpoint: 14° c.
Visibility: 10 Statute Miles.
Clouds: Broken 3600 ft.

PHHI 191656Z AUTO 32005KT 10SM BKN036 19/14 A3010 RMK AO2 SLP187 T01860141 $


Wind From 320°
Speed 05 kn.

 
 
jpsmedia worldairports.se 2020   terms of use